Time;durP1;ratioP1;P1;durP2;ratioP2;P2;SDS_P1;SDS_P2;PMS_P1;PMS_P2;Temp;Humidity;BMP_temperature;BMP_pressure;BME280_temperature;BME280_humidity;BME280_pressure;Samples;Min_cycle;Max_cycle;Signal;HPM_P1;HPM_P2
2023/10/12 00:10:24;;;;;;;8.40;3.70;;;;;;;21.27;53.76;99074.88;7321903;39;20260;31
2023/10/12 00:15:45;;;;;;;7.27;3.90;;;;;;;21.32;53.26;99053.06;7300306;39;20377;31
2023/10/12 00:21:25;;;;;;;11.43;4.10;;;;;;;21.26;53.59;99056.75;7343644;39;20311;31
2023/10/12 00:26:51;;;;;;;7.60;3.97;;;;;;;21.26;54.12;99040.28;7340922;39;20894;31
2023/10/12 00:32:26;;;;;;;7.57;3.83;;;;;;;21.23;52.97;99034.47;7250100;40;20300;31
2023/10/12 00:37:48;;;;;;;5.50;3.40;;;;;;;21.25;53.28;99038.63;7255574;39;20241;31
2023/10/12 00:43:36;;;;;;;10.25;3.50;;;;;;;21.23;53.54;99031.72;7264410;40;20261;31
2023/10/12 00:49:14;;;;;;;7.30;4.10;;;;;;;21.25;53.64;99032.28;7238453;40;20388;31
2023/10/12 00:54:41;;;;;;;6.60;4.00;;;;;;;21.23;53.36;99027.06;7243348;40;20721;31
2023/10/12 01:00:15;;;;;;;6.17;3.87;;;;;;;21.16;53.24;99020.84;7220501;40;20761;31
2023/10/12 01:06:05;;;;;;;8.02;3.70;;;;;;;21.17;53.47;99033.50;7212679;40;20336;31
2023/10/12 01:11:08;;;;;;;8.40;3.80;;;;;;;21.12;53.45;99022.38;7215190;40;20292;31
2023/10/12 01:16:46;;;;;;;9.10;4.25;;;;;;;21.10;54.11;99016.31;7234095;40;20879;31
2023/10/12 01:22:27;;;;;;;10.60;4.00;;;;;;;21.08;53.67;99022.03;7261674;39;22128;31
2023/10/12 01:33:04;;;;;;;10.50;4.18;;;;;;;21.08;53.90;99026.69;7325005;39;20259;31
2023/10/12 01:38:40;;;;;;;7.65;3.80;;;;;;;21.02;54.20;99017.50;7286501;39;20265;31
2023/10/12 01:44:18;;;;;;;9.90;4.00;;;;;;;21.01;54.19;99004.03;7262725;40;20742;31
2023/10/12 01:49:37;;;;;;;6.60;4.35;;;;;;;20.97;54.54;99017.41;7301467;39;20886;31
2023/10/12 01:55:18;;;;;;;7.40;4.20;;;;;;;20.90;54.17;99008.44;7297371;39;20705;31
2023/10/12 02:00:40;;;;;;;9.68;4.05;;;;;;;20.92;54.90;99020.00;7266130;40;20730;31
2023/10/12 02:06:16;;;;;;;7.97;4.05;;;;;;;20.90;54.75;99024.03;7292482;39;20850;31
2023/10/12 02:11:54;;;;;;;6.70;3.80;;;;;;;20.83;55.08;99024.16;7259262;40;20315;31
2023/10/12 02:17:12;;;;;;;9.58;4.36;;;;;;;20.79;54.24;99031.19;7238214;40;20861;31
2023/10/12 02:22:35;;;;;;;10.20;3.75;;;;;;;20.75;54.33;99038.22;7232860;40;20323;31
2023/10/12 02:28:10;;;;;;;8.90;4.20;;;;;;;20.67;55.67;99020.19;7285868;39;20251;31
2023/10/12 02:33:45;;;;;;;8.60;3.72;;;;;;;20.66;55.66;99012.25;7347115;39;20824;31
2023/10/12 02:39:21;;;;;;;7.40;4.20;;;;;;;20.59;55.21;99009.59;7270712;39;20260;31
2023/10/12 02:45:08;;;;;;;8.05;4.35;;;;;;;20.60;55.07;99008.53;7266910;40;20349;31
2023/10/12 02:50:43;;;;;;;7.30;4.03;;;;;;;20.63;55.94;99012.69;7228723;40;20809;31
2023/10/12 02:56:11;;;;;;;8.27;3.70;;;;;;;20.64;54.94;99019.84;7258471;40;20260;31
2023/10/12 03:07:42;;;;;;;10.07;4.30;;;;;;;20.56;55.61;99033.87;7320248;39;22028;31
2023/10/12 03:18:26;;;;;;;8.85;4.00;;;;;;;20.53;56.28;99040.69;7303937;39;20283;31
2023/10/12 03:23:57;;;;;;;6.40;3.80;;;;;;;20.56;55.75;99045.69;7319971;39;20741;31
2023/10/12 03:29:20;;;;;;;7.85;4.47;;;;;;;20.58;55.85;99048.16;7206602;40;20818;31
2023/10/12 03:34:54;;;;;;;7.45;4.20;;;;;;;20.59;56.37;99060.78;7220301;40;20828;31
2023/10/12 03:46:00;;;;;;;7.40;3.90;;;;;;;20.60;55.55;99059.75;7267831;39;20253;31
2023/10/12 03:51:26;;;;;;;10.60;4.20;;;;;;;20.60;55.85;99068.78;7274252;39;20736;31
2023/10/12 03:57:07;;;;;;;9.10;3.95;;;;;;;20.57;55.44;99065.69;7269178;40;20284;31
2023/10/12 04:08:00;;;;;;;7.45;4.30;;;;;;;20.59;56.27;99053.41;7292651;39;20267;31
2023/10/12 04:19:03;;;;;;;9.10;4.23;;;;;;;20.55;56.35;99076.88;7267534;40;20289;31
2023/10/12 04:24:42;;;;;;;6.80;4.20;;;;;;;20.53;56.33;99081.75;7317724;39;20850;31
2023/10/12 04:30:19;;;;;;;8.83;4.70;;;;;;;20.48;56.54;99067.09;7295620;39;20735;31
2023/10/12 04:35:52;;;;;;;5.87;4.05;;;;;;;20.47;56.74;99074.47;7318927;39;20245;31
2023/10/12 04:41:38;;;;;;;11.55;4.50;;;;;;;20.46;57.62;99074.69;7369005;39;20355;31
2023/10/12 04:47:20;;;;;;;7.47;4.07;;;;;;;20.39;56.59;99063.84;7340095;39;20834;31
2023/10/12 04:53:06;;;;;;;6.52;4.04;;;;;;;20.40;56.97;99078.37;7227362;40;20235;31
2023/10/12 04:58:32;;;;;;;8.74;4.44;;;;;;;20.38;57.08;99064.06;7207100;40;20262;31
2023/10/12 05:04:09;;;;;;;13.32;4.18;;;;;;;20.38;57.25;99075.88;7237383;40;20241;31
2023/10/12 05:09:49;;;;;;;6.50;4.28;;;;;;;20.37;56.46;99067.88;7260947;39;20851;31
2023/10/12 05:15:11;;;;;;;11.02;4.30;;;;;;;20.37;57.24;99068.72;7280869;39;20717;31
2023/10/12 05:20:42;;;;;;;6.47;3.80;;;;;;;20.33;57.41;99066.66;7269915;39;20249;31
2023/10/12 05:26:09;;;;;;;10.65;4.30;;;;;;;20.35;57.58;99079.06;7245785;40;20739;31
2023/10/12 05:31:58;;;;;;;5.55;3.90;;;;;;;20.30;57.76;99067.16;7334868;39;22081;31
2023/10/12 05:37:26;;;;;;;11.40;4.40;;;;;;;20.29;57.62;99074.47;7381134;39;20872;31
2023/10/12 05:42:47;;;;;;;7.50;4.20;;;;;;;20.32;57.47;99082.25;7056879;40;21220;31
2023/10/12 05:48:21;;;;;;;11.60;4.95;;;;;;;20.30;58.63;99095.34;7315607;39;20826;31
2023/10/12 05:54:02;;;;;;;9.33;4.77;;;;;;;20.20;58.63;99117.78;7358953;39;20239;31
2023/10/12 05:59:30;;;;;;;9.47;4.63;;;;;;;20.16;59.30;99102.03;7297594;39;20708;31
2023/10/12 06:04:50;;;;;;;10.00;4.53;;;;;;;20.13;59.52;99111.56;7331002;39;20950;31
2023/10/12 06:10:27;;;;;;;8.68;4.25;;;;;;;20.08;58.70;99107.84;7380544;39;20909;31
2023/10/12 06:15:53;;;;;;;9.10;5.05;;;;;;;20.13;59.02;99118.94;7339482;39;20332;31
2023/10/12 06:21:29;;;;;;;8.90;5.20;;;;;;;20.06;59.17;99121.72;7309873;39;20826;31
2023/10/12 06:27:11;;;;;;;8.77;5.45;;;;;;;20.06;60.00;99129.94;7286497;39;20837;31
2023/10/12 06:32:39;;;;;;;14.60;5.45;;;;;;;20.04;59.00;99125.78;7319876;39;20245;31
2023/10/12 06:38:22;;;;;;;17.30;10.13;;;;;;;20.03;59.94;99133.16;7343004;39;20279;31
2023/10/12 06:49:01;;;;;;;10.60;6.30;;;;;;;20.02;59.70;99142.41;7287467;39;20295;31
2023/10/12 06:59:28;;;;;;;8.77;5.50;;;;;;;20.06;59.54;99146.38;7356678;39;20377;31
2023/10/12 07:05:00;;;;;;;7.90;4.80;;;;;;;20.07;60.43;99155.41;7423007;39;20315;31
2023/10/12 07:10:34;;;;;;;10.10;4.80;;;;;;;20.13;60.01;99163.56;7328735;39;20255;31
2023/10/12 07:16:09;;;;;;;7.75;5.35;;;;;;;20.21;58.99;99162.41;7403226;39;20741;31
2023/10/12 07:21:53;;;;;;;7.15;5.18;;;;;;;20.15;59.80;99166.06;7338540;39;20576;31
2023/10/12 07:27:22;;;;;;;8.83;5.27;;;;;;;20.12;60.11;99170.09;7307654;39;20800;31
2023/10/12 07:32:59;;;;;;;10.37;5.17;;;;;;;20.09;60.16;99180.66;7297861;39;20863;31
2023/10/12 07:38:35;;;;;;;9.85;4.90;;;;;;;20.08;60.25;99192.66;7297295;39;22161;31
2023/10/12 07:49:22;;;;;;;10.30;5.30;;;;;;;20.08;60.04;99187.19;7318127;39;20264;31
2023/10/12 08:05:43;;;;;;;8.95;5.03;;;;;;;20.15;60.96;99179.72;7383978;39;20315;31
2023/10/12 08:11:08;;;;;;;12.80;5.87;;;;;;;20.14;60.76;99156.19;7337595;39;20261;31
2023/10/12 08:16:40;;;;;;;13.32;5.96;;;;;;;20.11;61.55;99164.84;7309480;39;20785;31
2023/10/12 08:22:03;;;;;;;14.85;5.90;;;;;;;20.15;61.24;99179.72;7282652;39;20869;31
2023/10/12 08:27:49;;;;;;;8.95;5.07;;;;;;;20.10;61.35;99174.09;7318827;39;20239;31
2023/10/12 08:33:13;;;;;;;13.05;5.60;;;;;;;20.18;61.56;99191.06;7342419;39;20850;31
2023/10/12 08:38:32;;;;;;;14.60;5.83;;;;;;;20.29;62.14;99191.38;7358880;39;20915;31
2023/10/12 08:44:00;;;;;;;9.40;5.50;;;;;;;20.33;61.83;99209.03;7395709;39;20408;31
2023/10/12 08:49:34;;;;;;;12.20;5.35;;;;;;;20.38;61.83;99206.44;7383451;39;20314;31
2023/10/12 08:55:11;;;;;;;15.53;7.70;;;;;;;20.39;61.59;99195.28;7339023;39;20711;31
2023/10/12 09:05:52;;;;;;;13.38;7.03;;;;;;;20.57;61.94;99200.72;7323169;39;20273;31
2023/10/12 09:11:29;;;;;;;11.40;5.85;;;;;;;20.59;61.54;99215.00;7371069;39;20819;31
2023/10/12 09:17:07;;;;;;;11.88;6.32;;;;;;;20.76;61.46;99215.22;7327719;39;20354;31
2023/10/12 09:22:45;;;;;;;13.70;5.60;;;;;;;20.84;61.26;99219.56;7318755;39;20336;31
2023/10/12 09:28:25;;;;;;;12.77;5.72;;;;;;;20.90;61.35;99211.22;7217401;40;20893;31
2023/10/12 09:34:31;;;;;;;10.20;5.90;;;;;;;20.99;60.70;99214.47;7218251;40;20272;31
2023/10/12 09:39:35;;;;;;;8.40;5.22;;;;;;;21.03;60.40;99215.66;7244076;40;20732;31
2023/10/12 09:45:10;;;;;;;13.60;5.90;;;;;;;21.10;60.79;99225.50;7228146;40;20256;31
2023/10/12 09:50:46;;;;;;;10.25;5.32;;;;;;;21.12;60.18;99233.44;7230697;40;20392;31
2023/10/12 09:56:26;;;;;;;11.70;5.60;;;;;;;21.12;59.93;99241.69;7235108;40;20237;31
2023/10/12 10:01:50;;;;;;;13.63;5.57;;;;;;;21.15;60.17;99249.47;7278596;39;20260;31
2023/10/12 10:07:26;;;;;;;9.70;5.68;;;;;;;21.13;59.56;99255.19;7330455;39;20811;31
2023/10/12 10:13:02;;;;;;;11.07;5.90;;;;;;;21.14;59.21;99272.47;7316291;39;20721;31
2023/10/12 10:23:48;;;;;;;16.65;5.70;;;;;;;21.23;58.88;99257.38;7283337;40;20285;31
2023/10/12 10:29:29;;;;;;;7.68;5.30;;;;;;;21.25;58.81;99249.75;7214700;40;20734;31
2023/10/12 10:34:59;;;;;;;8.60;5.57;;;;;;;21.33;57.99;99251.28;7236234;40;20320;31
2023/10/12 10:40:44;;;;;;;11.57;4.93;;;;;;;21.33;58.67;99260.38;7182645;40;20254;31
2023/10/12 10:46:17;;;;;;;8.66;4.84;;;;;;;21.36;57.89;99262.66;7197943;40;20247;31
2023/10/12 10:52:13;;;;;;;8.53;5.93;;;;;;;21.47;58.67;99271.97;7250397;40;20257;31
2023/10/12 10:57:37;;;;;;;9.10;4.64;;;;;;;21.42;57.96;99258.97;7292344;39;20717;31
2023/10/12 11:03:09;;;;;;;7.40;5.35;;;;;;;21.44;57.92;99251.34;7310511;39;20233;31
2023/10/12 11:08:45;;;;;;;8.38;5.18;;;;;;;21.47;57.74;99247.28;7327297;39;20333;31
2023/10/12 11:14:24;;;;;;;8.10;4.97;;;;;;;21.41;57.64;99237.28;7271614;40;20808;31
2023/10/12 11:19:57;;;;;;;13.15;5.97;;;;;;;21.33;59.01;99256.78;7280306;39;20729;31
2023/10/12 11:25:39;;;;;;;10.60;4.95;;;;;;;21.22;59.78;99252.97;7266986;40;20240;31
2023/10/12 11:31:17;;;;;;;10.45;5.75;;;;;;;21.24;60.07;99256.28;7243745;40;20877;31
2023/10/12 11:36:45;;;;;;;12.73;5.70;;;;;;;21.24;59.81;99223.37;7227156;40;20777;31
2023/10/12 11:42:20;;;;;;;13.20;5.45;;;;;;;21.18;59.82;99228.97;7238927;40;20354;31
2023/10/12 11:47:57;;;;;;;12.95;5.43;;;;;;;21.17;60.17;99225.41;7216845;40;20249;31
2023/10/12 11:53:33;;;;;;;11.97;5.17;;;;;;;21.20;59.80;99189.28;7228514;40;20242;31
2023/10/12 11:59:13;;;;;;;10.10;5.10;;;;;;;21.20;59.65;99182.97;7292985;39;20261;31
2023/10/12 12:10:00;;;;;;;18.00;6.25;;;;;;;21.09;60.19;99168.97;7290150;39;20288;31
2023/10/12 12:15:25;;;;;;;8.38;5.47;;;;;;;21.07;60.85;99176.59;7120253;39;20245;31
2023/10/12 12:21:03;;;;;;;8.82;5.18;;;;;;;20.93;60.87;99158.69;7305108;39;20266;31
2023/10/12 12:26:43;;;;;;;11.23;5.45;;;;;;;20.90;62.25;99150.94;7299876;39;20240;31
2023/10/12 12:32:12;;;;;;;11.85;5.53;;;;;;;20.87;61.38;99145.09;7236882;40;20345;31
2023/10/12 12:37:37;;;;;;;12.00;5.45;;;;;;;20.92;61.88;99154.28;7198006;40;20253;31
2023/10/12 12:43:08;;;;;;;11.50;6.05;;;;;;;20.88;62.62;99150.34;7206275;40;20243;31
2023/10/12 12:48:28;;;;;;;12.00;5.50;;;;;;;20.96;61.62;99135.47;7221539;40;20287;31
2023/10/12 12:54:03;;;;;;;10.60;5.10;;;;;;;20.93;61.61;99127.72;7242791;40;20343;31
2023/10/12 12:59:41;;;;;;;11.65;5.32;;;;;;;20.95;61.16;99122.81;7290806;40;20241;31
2023/10/12 13:05:17;;;;;;;8.18;5.30;;;;;;;20.97;62.26;99123.44;7378146;39;20274;31
2023/10/12 13:10:52;;;;;;;11.45;5.40;;;;;;;21.03;62.89;99117.84;7290347;40;20534;31
2023/10/12 13:16:28;;;;;;;7.40;4.95;;;;;;;21.08;62.78;99104.25;7266515;40;20273;31
2023/10/12 13:21:49;;;;;;;7.75;5.45;;;;;;;21.12;63.13;99121.06;7225627;40;20265;31
2023/10/12 13:27:09;;;;;;;11.20;6.10;;;;;;;21.12;62.89;99099.13;7195541;40;20258;31
2023/10/12 13:32:52;;;;;;;11.12;5.80;;;;;;;21.17;61.92;99087.50;7202500;40;20245;31
2023/10/12 13:38:22;;;;;;;9.75;4.95;;;;;;;21.25;61.23;99090.72;7225980;40;20261;31
2023/10/12 13:49:06;;;;;;;10.70;5.53;;;;;;;21.34;60.72;99077.47;7295061;39;20279;31
2023/10/12 13:54:42;;;;;;;10.85;5.80;;;;;;;21.46;59.11;99067.31;7277966;39;20296;31
2023/10/12 14:00:17;;;;;;;9.60;5.20;;;;;;;21.49;59.97;99069.59;7279717;39;20269;31
2023/10/12 14:05:51;;;;;;;8.57;5.28;;;;;;;21.56;59.98;99073.06;7199229;40;20343;31
2023/10/12 14:11:28;;;;;;;11.52;5.55;;;;;;;21.59;60.23;99067.91;7237814;39;20260;31
2023/10/12 14:17:04;;;;;;;11.05;5.40;;;;;;;21.70;59.45;99073.63;7218577;40;20246;31
2023/10/12 14:22:42;;;;;;;9.57;5.03;;;;;;;21.75;59.10;99066.34;7298235;39;20237;31
2023/10/12 14:28:00;;;;;;;11.15;5.05;;;;;;;21.75;58.95;99068.25;7229884;40;20238;31
2023/10/12 14:33:21;;;;;;;7.75;5.30;;;;;;;21.75;58.62;99058.13;7238990;40;20269;31
2023/10/12 14:38:57;;;;;;;8.52;4.95;;;;;;;21.83;58.59;99063.22;7324126;39;20259;31
2023/10/12 14:44:33;;;;;;;8.45;4.78;;;;;;;21.89;58.84;99067.75;7342902;39;20260;31
2023/10/12 14:50:16;;;;;;;9.60;4.90;;;;;;;21.89;58.74;99054.03;7270913;40;20245;31
2023/10/12 14:55:45;;;;;;;11.38;5.12;;;;;;;21.97;59.01;99048.19;7279692;39;20315;31
2023/10/12 15:01:27;;;;;;;11.45;5.10;;;;;;;22.02;58.33;99066.66;7277280;39;20318;31
2023/10/12 15:06:42;;;;;;;6.95;4.70;;;;;;;22.06;59.22;99065.09;7269521;40;20253;31
2023/10/12 15:12:19;;;;;;;10.00;4.97;;;;;;;21.99;59.32;99067.97;7307485;39;20244;31
2023/10/12 15:17:39;;;;;;;12.14;6.14;;;;;;;21.94;62.34;99078.84;7329931;39;20343;31
2023/10/12 15:23:16;;;;;;;8.50;4.80;;;;;;;21.70;61.37;99096.41;7333351;39;20240;31
2023/10/12 15:28:53;;;;;;;13.65;4.65;;;;;;;21.51;62.25;99079.25;7297434;39;20380;31
2023/10/12 15:39:17;;;;;;;7.40;4.57;;;;;;;21.36;61.56;99086.31;7282754;39;20271;31
2023/10/12 15:44:55;;;;;;;13.93;8.52;;;;;;;21.28;62.53;99079.25;7308617;39;20447;31
2023/10/12 15:50:32;;;;;;;10.00;5.70;;;;;;;21.29;62.40;99085.56;7326123;39;20239;31
2023/10/12 15:56:09;;;;;;;6.25;4.65;;;;;;;21.28;63.15;99078.44;7338661;39;20366;31
2023/10/12 16:01:44;;;;;;;8.05;5.05;;;;;;;21.21;63.16;99081.28;7278836;40;20265;31
2023/10/12 16:07:06;;;;;;;6.30;4.87;;;;;;;21.20;62.91;99089.75;7242256;39;20245;31
2023/10/12 16:12:26;;;;;;;11.65;5.50;;;;;;;21.19;63.58;99088.94;7265350;39;20238;31
2023/10/12 16:18:03;;;;;;;9.50;5.40;;;;;;;21.16;63.37;99091.28;7258334;39;20237;31
2023/10/12 16:23:23;;;;;;;9.83;6.10;;;;;;;21.10;63.52;99102.13;7286631;39;20248;31
2023/10/12 16:29:00;;;;;;;8.05;4.80;;;;;;;21.00;64.89;99104.63;7321303;39;20343;31
2023/10/12 16:34:35;;;;;;;9.45;5.20;;;;;;;20.94;64.93;99112.94;7316081;39;20244;31
2023/10/12 16:40:15;;;;;;;12.22;5.48;;;;;;;20.84;65.94;99123.66;7304927;39;20352;31
2023/10/12 16:45:30;;;;;;;9.02;5.60;;;;;;;20.79;66.11;99121.59;7308840;39;20260;31
2023/10/12 16:51:07;;;;;;;8.85;5.57;;;;;;;20.69;66.01;99089.31;7331152;39;20260;31
2023/10/12 16:56:43;;;;;;;11.30;6.05;;;;;;;20.64;68.25;99102.03;7301185;40;20280;31
2023/10/12 17:02:17;;;;;;;10.78;6.12;;;;;;;20.49;68.10;99110.66;7258159;40;20383;31
2023/10/12 17:07:53;;;;;;;12.60;5.85;;;;;;;20.31;69.12;99135.38;7291199;40;20244;31
2023/10/12 17:13:28;;;;;;;9.05;5.80;;;;;;;20.39;67.64;99121.34;7295495;39;20330;31
2023/10/12 17:19:04;;;;;;;11.57;6.23;;;;;;;20.43;68.31;99138.97;7319623;39;20240;31
2023/10/12 17:24:40;;;;;;;11.30;5.80;;;;;;;20.37;68.44;99134.41;7296560;39;20338;31
2023/10/12 17:30:13;;;;;;;11.50;5.85;;;;;;;20.34;69.41;99143.09;7238145;40;20261;31
2023/10/12 17:35:33;;;;;;;11.25;6.05;;;;;;;20.45;68.02;99157.91;7261274;39;20237;31
2023/10/12 17:41:10;;;;;;;13.13;6.37;;;;;;;20.44;68.24;99162.56;7285565;39;20280;31
2023/10/12 17:46:46;;;;;;;10.90;5.40;;;;;;;20.44;68.45;99178.16;7300470;39;20240;31
2023/10/12 17:52:21;;;;;;;10.57;5.43;;;;;;;20.46;67.89;99174.09;7282394;40;20350;31
2023/10/12 17:57:56;;;;;;;7.95;4.50;;;;;;;20.42;67.75;99172.91;7267978;39;20307;31
2023/10/12 18:03:30;;;;;;;9.20;3.90;;;;;;;20.41;68.13;99163.00;7309855;39;20256;31
2023/10/12 18:08:50;;;;;;;10.00;4.60;;;;;;;20.48;68.26;99180.22;7289597;40;20356;31
2023/10/12 18:14:24;;;;;;;8.95;4.60;;;;;;;20.45;68.98;99166.94;7274697;40;20268;31
2023/10/12 18:19:59;;;;;;;10.00;4.60;;;;;;;20.49;68.60;99170.91;7307119;39;20260;31
2023/10/12 18:25:32;;;;;;;8.82;4.42;;;;;;;20.53;69.30;99172.13;7291665;39;20235;31
2023/10/12 18:31:10;;;;;;;15.20;4.90;;;;;;;20.56;68.42;99166.19;7089220;40;21261;31
2023/10/12 18:36:45;;;;;;;10.02;4.50;;;;;;;20.56;68.23;99159.88;7245107;40;20351;31
2023/10/12 18:42:05;;;;;;;10.07;4.65;;;;;;;20.62;67.66;99165.25;7309328;39;20319;31
2023/10/12 18:47:39;;;;;;;8.77;4.73;;;;;;;20.58;68.76;99157.72;7300188;39;20426;31
2023/10/12 18:53:14;;;;;;;13.00;4.90;;;;;;;20.61;68.75;99181.94;7332506;39;20300;31
2023/10/12 18:58:50;;;;;;;14.13;5.03;;;;;;;20.57;68.03;99177.97;7303279;39;20376;31
2023/10/12 19:04:27;;;;;;;9.03;4.37;;;;;;;20.53;69.11;99177.63;7286655;40;20245;31
2023/10/12 19:10:06;;;;;;;10.75;5.00;;;;;;;20.53;68.47;99176.78;7227082;40;20246;31
2023/10/12 19:15:24;;;;;;;8.82;4.40;;;;;;;20.54;67.76;99197.59;7279209;40;20244;31
2023/10/12 19:21:01;;;;;;;11.67;4.97;;;;;;;20.51;68.13;99193.44;7303709;39;20244;31
2023/10/12 19:26:21;;;;;;;11.50;4.50;;;;;;;20.58;68.00;99193.31;7226272;40;20339;31
2023/10/12 19:31:56;;;;;;;8.65;4.45;;;;;;;20.52;67.82;99192.37;7274023;40;20451;31
2023/10/12 19:37:31;;;;;;;12.00;4.50;;;;;;;20.53;68.01;99182.25;7301273;40;20234;31
2023/10/12 19:43:07;;;;;;;10.50;4.70;;;;;;;20.49;69.18;99170.91;7264230;40;20337;31
2023/10/12 19:48:27;;;;;;;13.45;4.55;;;;;;;20.52;67.47;99181.41;7269392;40;20252;31
2023/10/12 19:54:00;;;;;;;7.05;4.15;;;;;;;20.51;68.48;99157.81;7286608;40;20306;31
2023/10/12 19:59:21;;;;;;;12.00;4.35;;;;;;;20.56;68.88;99149.75;7260871;40;20310;31
2023/10/12 20:04:42;;;;;;;11.15;4.10;;;;;;;20.56;68.09;99149.75;7342209;39;20248;31
2023/10/12 20:10:13;;;;;;;12.73;4.22;;;;;;;20.55;68.04;99137.13;7342103;39;20351;31
2023/10/12 20:15:48;;;;;;;11.48;4.07;;;;;;;20.54;68.96;99145.56;7303898;39;20240;31
2023/10/12 20:21:23;;;;;;;14.10;5.00;;;;;;;20.54;67.49;99148.28;7282421;39;20241;31
2023/10/12 20:27:00;;;;;;;9.50;4.57;;;;;;;20.54;68.23;99176.53;7221950;40;20418;31
2023/10/12 20:32:20;;;;;;;7.82;4.03;;;;;;;20.58;68.16;99185.09;7198380;40;20242;31
2023/10/12 20:37:41;;;;;;;9.30;4.57;;;;;;;20.58;68.96;99185.94;7248741;39;20245;31
2023/10/12 20:43:16;;;;;;;9.20;4.50;;;;;;;20.54;67.60;99182.00;7254749;40;20261;31
2023/10/12 20:48:53;;;;;;;9.63;4.05;;;;;;;20.52;68.11;99183.31;7283541;39;20256;31
2023/10/12 20:54:26;;;;;;;14.48;4.62;;;;;;;20.53;68.55;99180.34;7277964;40;20288;31
2023/10/12 21:00:05;;;;;;;13.50;4.47;;;;;;;20.51;67.81;99195.31;7297507;40;20248;31
2023/10/12 21:05:40;;;;;;;10.48;4.70;;;;;;;20.52;68.56;99181.41;7265592;40;20500;31
2023/10/12 21:11:21;;;;;;;6.43;4.30;;;;;;;20.52;67.50;99178.69;7249513;39;20241;31
2023/10/12 21:16:55;;;;;;;10.18;4.57;;;;;;;20.47;69.14;99169.47;7270216;39;20324;31
2023/10/12 21:22:17;;;;;;;13.73;4.72;;;;;;;20.46;67.90;99159.56;7307742;39;20329;31
2023/10/12 21:27:36;;;;;;;10.82;4.60;;;;;;;20.47;68.13;99153.88;7278128;39;20241;31
2023/10/12 21:33:14;;;;;;;10.45;4.30;;;;;;;20.48;68.11;99146.50;7250701;40;20401;31
2023/10/12 21:38:52;;;;;;;10.53;4.13;;;;;;;20.48;68.63;99144.59;7236547;39;20284;31
2023/10/12 21:49:32;;;;;;;13.02;4.60;;;;;;;20.46;67.54;99132.19;7381125;39;20286;31
2023/10/12 21:59:57;;;;;;;10.10;4.70;;;;;;;20.36;69.00;99154.66;7350441;39;20346;31
2023/10/12 22:05:34;;;;;;;12.85;4.00;;;;;;;20.31;69.49;99140.84;7380230;39;20368;31
2023/10/12 22:10:56;;;;;;;11.30;4.10;;;;;;;20.41;68.45;99153.97;7363207;39;20243;31
2023/10/12 22:16:33;;;;;;;12.55;4.10;;;;;;;20.43;68.12;99128.03;7382835;39;20287;31
2023/10/12 22:22:09;;;;;;;11.35;4.65;;;;;;;20.42;68.13;99131.00;7278377;40;20252;31
2023/10/12 22:27:45;;;;;;;17.45;5.00;;;;;;;20.31;68.38;99135.38;7304883;39;20236;31
2023/10/12 22:33:19;;;;;;;8.30;4.53;;;;;;;20.21;68.76;99132.28;7330544;39;20263;31
2023/10/12 22:38:55;;;;;;;12.25;4.85;;;;;;;20.06;69.06;99151.00;7292411;39;20316;31
2023/10/12 22:44:32;;;;;;;15.95;4.95;;;;;;;20.02;69.73;99142.41;7285734;40;20277;31
2023/10/12 22:55:24;;;;;;;10.85;4.90;;;;;;;19.93;70.40;99167.56;7244447;40;20344;31
2023/10/12 23:05:48;;;;;;;11.38;5.00;;;;;;;19.96;69.22;99170.72;7338407;39;20380;31
2023/10/12 23:16:27;;;;;;;14.37;5.67;;;;;;;19.86;69.75;99175.03;7378095;39;20263;31
2023/10/12 23:21:50;;;;;;;9.05;5.20;;;;;;;19.76;70.49;99178.28;7317438;39;20270;31
2023/10/12 23:27:20;;;;;;;12.35;5.35;;;;;;;19.60;70.50;99190.66;7373558;39;20246;31
2023/10/12 23:32:59;;;;;;;8.80;5.40;;;;;;;19.50;70.21;99194.94;7357413;39;20272;31
2023/10/12 23:43:21;;;;;;;8.53;5.40;;;;;;;19.32;70.30;99182.03;7326181;39;20583;31
2023/10/12 23:54:00;;;;;;;12.63;6.13;;;;;;;18.99;71.72;99173.25;7375217;39;21393;31
2023/10/12 23:59:34;;;;;;;12.30;5.80;;;;;;;18.91;72.13;99175.19;7280561;40;20325;31
